Time;durP1;ratioP1;P1;durP2;ratioP2;P2;SDS_P1;SDS_P2;PMS_P1;PMS_P2;Temp;Humidity;BMP_temperature;BMP_pressure;BME280_temperature;BME280_humidity;BME280_pressure;Samples;Min_cycle;Max_cycle;Signal;HPM_P1;HPM_P2
2023/10/18 00:05:05;;;;;;;;;;;17.30;56.10;;;;;;10201813;28;94776;-53
2023/10/18 00:10:08;;;;;;;;;;;17.30;56.60;;;;;;10203370;28;93656;-48
2023/10/18 00:15:11;;;;;;;;;;;17.30;57.00;;;;;;10200089;28;93569;-52
2023/10/18 00:20:13;;;;;;;;;;;17.20;56.90;;;;;;10202246;28;94597;-52
2023/10/18 00:25:16;;;;;;;;;;;17.20;56.70;;;;;;10191750;28;95977;-53
2023/10/18 00:30:18;;;;;;;;;;;17.20;56.50;;;;;;10198491;28;93663;-52
2023/10/18 00:35:20;;;;;;;;;;;17.20;56.20;;;;;;10213229;28;94435;-49
2023/10/18 00:45:36;;;;;;;;;;;17.20;55.90;;;;;;10203005;28;94367;-52
2023/10/18 00:50:42;;;;;;;;;;;17.20;55.60;;;;;;10200050;28;94819;-48
2023/10/18 00:55:44;;;;;;;;;;;17.30;55.70;;;;;;10201648;28;93757;-50
2023/10/18 01:06:12;;;;;;;;;;;17.20;55.90;;;;;;10352468;23;94247;-70
2023/10/18 01:11:18;;;;;;;;;;;17.10;56.40;;;;;;10236997;28;95720;-70
2023/10/18 01:16:23;;;;;;;;;;;17.10;56.20;;;;;;10223546;28;96808;-70
2023/10/18 01:21:26;;;;;;;;;;;17.10;56.00;;;;;;10223947;28;93689;-70
2023/10/18 01:26:28;;;;;;;;;;;17.10;55.80;;;;;;10224934;28;93497;-70
2023/10/18 01:31:31;;;;;;;;;;;17.10;55.50;;;;;;10233208;28;93388;-71
2023/10/18 01:36:33;;;;;;;;;;;17.10;55.50;;;;;;10241312;28;93789;-70
2023/10/18 01:41:37;;;;;;;;;;;17.10;55.30;;;;;;10241030;28;93454;-70
2023/10/18 01:46:46;;;;;;;;;;;17.10;55.10;;;;;;10238901;28;93380;-70
2023/10/18 01:51:51;;;;;;;;;;;17.10;55.00;;;;;;10234421;28;92768;-70
2023/10/18 01:56:54;;;;;;;;;;;17.10;55.20;;;;;;10245953;28;94600;-70
2023/10/18 02:01:59;;;;;;;;;;;17.10;55.50;;;;;;10248668;28;93008;-70
2023/10/18 02:07:01;;;;;;;;;;;17.00;56.00;;;;;;10244608;28;96878;-70
2023/10/18 02:12:05;;;;;;;;;;;17.00;55.80;;;;;;10211409;28;95087;-70
2023/10/18 02:17:09;;;;;;;;;;;17.00;55.50;;;;;;10250012;28;93738;-70
2023/10/18 02:22:16;;;;;;;;;;;17.00;55.50;;;;;;10215331;28;93131;-70
2023/10/18 02:27:19;;;;;;;;;;;17.00;55.40;;;;;;10228169;28;93446;-70
2023/10/18 02:32:34;;;;;;;;;;;17.00;55.30;;;;;;10243381;28;93567;-70
2023/10/18 02:37:36;;;;;;;;;;;17.00;55.00;;;;;;10249072;28;93047;-70
2023/10/18 02:42:38;;;;;;;;;;;17.00;54.90;;;;;;10247517;28;93863;-70
2023/10/18 02:47:41;;;;;;;;;;;17.00;54.90;;;;;;10247655;28;93237;-70
2023/10/18 02:52:43;;;;;;;;;;;17.00;55.20;;;;;;10219676;28;94553;-70
2023/10/18 02:57:47;;;;;;;;;;;17.00;55.50;;;;;;10220259;28;96839;-70
2023/10/18 03:02:48;;;;;;;;;;;17.00;55.70;;;;;;10223943;28;93506;-70
2023/10/18 03:07:50;;;;;;;;;;;17.00;55.50;;;;;;10226178;28;95207;-70
2023/10/18 03:12:53;;;;;;;;;;;17.00;55.30;;;;;;10244544;28;93472;-70
2023/10/18 03:17:56;;;;;;;;;;;17.00;55.00;;;;;;10245808;28;94704;-70
2023/10/18 03:23:02;;;;;;;;;;;17.00;54.90;;;;;;10228185;28;94450;-70
2023/10/18 03:28:04;;;;;;;;;;;17.00;54.80;;;;;;10241271;28;93507;-70
2023/10/18 03:33:07;;;;;;;;;;;17.00;54.70;;;;;;10236362;28;93160;-70
2023/10/18 03:38:18;;;;;;;;;;;17.00;54.40;;;;;;10246251;28;94644;-70
2023/10/18 03:43:26;;;;;;;;;;;17.00;54.30;;;;;;10243730;28;93954;-70
2023/10/18 03:48:39;;;;;;;;;;;17.00;54.60;;;;;;10228682;28;96356;-70
2023/10/18 03:53:41;;;;;;;;;;;17.00;55.10;;;;;;10238086;28;94380;-69
2023/10/18 03:58:49;;;;;;;;;;;16.90;55.30;;;;;;10237540;28;94017;-70
2023/10/18 04:03:51;;;;;;;;;;;16.90;55.20;;;;;;10226770;28;94508;-70
2023/10/18 04:08:53;;;;;;;;;;;16.90;54.90;;;;;;10237241;28;93862;-70
2023/10/18 04:13:56;;;;;;;;;;;16.90;54.70;;;;;;10237724;28;93252;-70
2023/10/18 04:18:58;;;;;;;;;;;16.90;54.50;;;;;;10237868;28;93787;-70
2023/10/18 04:24:03;;;;;;;;;;;16.90;54.40;;;;;;10235359;28;92260;-70
2023/10/18 04:29:10;;;;;;;;;;;16.90;54.30;;;;;;10234371;28;94449;-70
2023/10/18 04:34:18;;;;;;;;;;;16.90;54.20;;;;;;10244402;28;94461;-70
2023/10/18 04:39:20;;;;;;;;;;;16.90;54.10;;;;;;10240697;28;96793;-69
2023/10/18 04:44:23;;;;;;;;;;;16.90;54.40;;;;;;10242501;28;94421;-69
2023/10/18 04:50:00;;;;;;;;;;;16.90;54.80;;;;;;10243679;28;94460;-70
2023/10/18 04:55:00;;;;;;;;;;;16.80;54.90;;;;;;10232721;28;94422;-69
2023/10/18 05:00:11;;;;;;;;;;;16.90;54.80;;;;;;10226605;28;94457;-70
2023/10/18 05:05:13;;;;;;;;;;;16.90;54.60;;;;;;10241256;28;93791;-70
2023/10/18 05:10:19;;;;;;;;;;;16.90;54.40;;;;;;10223948;28;94426;-69
2023/10/18 05:15:29;;;;;;;;;;;16.90;54.30;;;;;;10245738;28;92616;-69
2023/10/18 05:20:47;;;;;;;;;;;16.90;54.10;;;;;;10233941;28;94693;-68
2023/10/18 05:26:08;;;;;;;;;;;16.90;54.60;;;;;;10211797;28;94631;-69
2023/10/18 05:41:29;;;;;;;;;;;16.90;55.40;;;;;;10234605;28;94125;-70
2023/10/18 05:46:34;;;;;;;;;;;16.80;55.40;;;;;;10229348;28;95137;-70
2023/10/18 05:51:38;;;;;;;;;;;16.80;55.80;;;;;;10229623;28;95346;-69
2023/10/18 05:56:40;;;;;;;;;;;16.90;55.70;;;;;;10239785;28;93724;-70
2023/10/18 06:01:42;;;;;;;;;;;16.90;55.80;;;;;;10227995;28;93457;-70
2023/10/18 06:06:44;;;;;;;;;;;16.90;55.90;;;;;;10216832;28;94367;-70
2023/10/18 06:11:48;;;;;;;;;;;16.90;56.30;;;;;;10237159;28;93372;-70
2023/10/18 06:16:51;;;;;;;;;;;16.90;56.30;;;;;;10239137;28;94150;-70
2023/10/18 06:21:59;;;;;;;;;;;16.90;56.40;;;;;;10242192;28;97355;-70
2023/10/18 06:27:04;;;;;;;;;;;16.90;56.30;;;;;;10230378;28;94486;-70
2023/10/18 06:32:06;;;;;;;;;;;16.90;56.30;;;;;;10233571;28;94747;-70
2023/10/18 06:37:09;;;;;;;;;;;16.90;56.30;;;;;;10235626;28;95804;-70
2023/10/18 06:42:12;;;;;;;;;;;16.90;56.30;;;;;;10245853;28;93998;-70
2023/10/18 06:47:15;;;;;;;;;;;16.90;56.30;;;;;;10245133;28;94768;-69
2023/10/18 06:52:21;;;;;;;;;;;16.90;56.20;;;;;;10247460;28;96733;-69
2023/10/18 06:57:27;;;;;;;;;;;16.90;56.50;;;;;;10236945;28;94272;-70
2023/10/18 07:02:30;;;;;;;;;;;16.90;56.60;;;;;;10240650;28;92992;-70
2023/10/18 07:07:32;;;;;;;;;;;16.80;56.50;;;;;;10244217;28;97185;-70
2023/10/18 07:12:44;;;;;;;;;;;16.80;56.60;;;;;;10241640;28;96979;-70
2023/10/18 07:17:51;;;;;;;;;;;16.80;56.80;;;;;;10241473;28;93464;-70
2023/10/18 07:22:56;;;;;;;;;;;16.80;56.70;;;;;;10232438;28;93442;-70
2023/10/18 07:28:00;;;;;;;;;;;16.80;56.80;;;;;;10226902;28;93469;-70
2023/10/18 07:33:02;;;;;;;;;;;16.70;56.80;;;;;;10219646;28;94428;-70
2023/10/18 07:38:04;;;;;;;;;;;16.70;56.90;;;;;;10241658;28;94408;-70
2023/10/18 07:43:07;;;;;;;;;;;16.70;56.90;;;;;;10237746;28;94182;-70
2023/10/18 07:48:11;;;;;;;;;;;16.70;57.10;;;;;;10241304;28;92860;-70
2023/10/18 07:53:14;;;;;;;;;;;16.70;57.20;;;;;;10244422;28;93654;-70
2023/10/18 07:58:22;;;;;;;;;;;16.70;57.20;;;;;;10235312;28;94073;-70
2023/10/18 08:03:24;;;;;;;;;;;16.60;57.30;;;;;;10211719;28;96720;-70
2023/10/18 08:08:26;;;;;;;;;;;16.70;57.20;;;;;;10210668;28;93859;-70
2023/10/18 08:13:28;;;;;;;;;;;16.60;57.30;;;;;;10232676;28;93495;-70
2023/10/18 08:18:42;;;;;;;;;;;16.60;57.30;;;;;;10240954;28;94499;-70
2023/10/18 08:23:44;;;;;;;;;;;16.70;57.40;;;;;;10230332;28;93772;-69
2023/10/18 08:28:46;;;;;;;;;;;16.60;57.50;;;;;;10230500;28;94983;-70
2023/10/18 08:33:49;;;;;;;;;;;16.60;57.40;;;;;;10243032;28;93101;-70
2023/10/18 08:38:51;;;;;;;;;;;16.70;57.50;;;;;;10237165;28;94090;-70
2023/10/18 08:44:19;;;;;;;;;;;16.60;57.50;;;;;;10228650;28;93458;-69
2023/10/18 08:49:22;;;;;;;;;;;16.60;57.50;;;;;;10226105;28;94917;-69
2023/10/18 08:54:24;;;;;;;;;;;16.60;57.60;;;;;;10224399;28;97245;-70
2023/10/18 08:59:27;;;;;;;;;;;16.60;57.50;;;;;;10235875;28;94772;-70
2023/10/18 09:04:31;;;;;;;;;;;16.60;57.60;;;;;;10239550;28;93772;-70
2023/10/18 09:09:36;;;;;;;;;;;16.60;57.60;;;;;;10236587;28;94285;-70
2023/10/18 09:14:39;;;;;;;;;;;16.60;57.70;;;;;;10219555;28;96671;-70
2023/10/18 09:19:45;;;;;;;;;;;16.60;58.70;;;;;;10235246;28;93462;-70
2023/10/18 09:24:47;;;;;;;;;;;16.60;57.80;;;;;;10227474;28;94467;-70
2023/10/18 09:29:49;;;;;;;;;;;16.60;57.80;;;;;;10221644;28;93272;-70
2023/10/18 09:34:51;;;;;;;;;;;16.60;57.80;;;;;;10224605;28;94961;-70
2023/10/18 09:39:56;;;;;;;;;;;16.60;57.90;;;;;;10216524;28;93368;-70
2023/10/18 09:44:59;;;;;;;;;;;16.60;57.90;;;;;;10247755;28;95998;-69
2023/10/18 09:50:06;;;;;;;;;;;16.60;57.90;;;;;;10242239;28;94610;-69
2023/10/18 09:55:08;;;;;;;;;;;16.60;58.00;;;;;;10231616;28;94659;-70
2023/10/18 10:00:11;;;;;;;;;;;16.60;58.10;;;;;;10246244;28;93990;-70
2023/10/18 10:05:24;;;;;;;;;;;16.60;58.10;;;;;;10249692;28;92880;-70
2023/10/18 10:10:45;;;;;;;;;;;16.60;58.00;;;;;;10245167;28;95863;-70
2023/10/18 10:15:48;;;;;;;;;;;16.60;58.00;;;;;;10236103;28;94212;-70
2023/10/18 10:20:51;;;;;;;;;;;16.60;58.00;;;;;;10244011;28;93282;-70
2023/10/18 10:26:11;;;;;;;;;;;16.60;58.90;;;;;;10214065;28;94381;-69
2023/10/18 10:31:51;;;;;;;;;;;16.70;58.00;;;;;;10203275;28;93629;-70
2023/10/18 10:37:05;;;;;;;;;;;16.70;57.60;;;;;;10223213;28;96048;-71
2023/10/18 10:42:19;;;;;;;;;;;16.70;57.20;;;;;;10236105;28;93698;-70
2023/10/18 10:47:30;;;;;;;;;;;16.80;56.90;;;;;;10228473;28;94490;-70
2023/10/18 10:52:33;;;;;;;;;;;16.80;56.60;;;;;;10212545;28;94439;-70
2023/10/18 10:57:43;;;;;;;;;;;16.90;56.40;;;;;;10238061;28;94679;-70
2023/10/18 11:02:47;;;;;;;;;;;16.90;56.20;;;;;;10223005;28;94444;-70
2023/10/18 11:07:49;;;;;;;;;;;16.90;55.90;;;;;;10216067;28;96697;-70
2023/10/18 11:12:51;;;;;;;;;;;16.90;55.70;;;;;;10234891;28;93301;-70
2023/10/18 11:18:09;;;;;;;;;;;16.90;55.90;;;;;;10245765;28;93512;-69
2023/10/18 11:23:11;;;;;;;;;;;16.90;56.40;;;;;;10242942;28;94479;-70
2023/10/18 11:28:28;;;;;;;;;;;16.90;56.50;;;;;;10233587;28;96251;-70
2023/10/18 11:39:07;;;;;;;;;;;16.90;56.20;;;;;;10243042;28;94504;-70
2023/10/18 11:44:20;;;;;;;;;;;16.90;56.00;;;;;;10235025;28;94592;-69
2023/10/18 11:49:32;;;;;;;;;;;16.90;55.90;;;;;;10244245;28;93759;-70
2023/10/18 11:54:35;;;;;;;;;;;16.90;55.70;;;;;;10224938;28;93453;-70
2023/10/18 11:59:49;;;;;;;;;;;17.00;55.60;;;;;;10243666;28;93575;-69
2023/10/18 12:04:52;;;;;;;;;;;16.90;55.50;;;;;;10245213;28;92747;-69
2023/10/18 12:09:55;;;;;;;;;;;16.90;55.60;;;;;;10218864;28;93938;-70
2023/10/18 12:14:56;;;;;;;;;;;16.90;55.70;;;;;;10233512;28;93374;-70
2023/10/18 12:19:58;;;;;;;;;;;16.90;56.50;;;;;;10203073;28;96597;-70
2023/10/18 12:25:01;;;;;;;;;;;16.90;56.60;;;;;;10228892;28;93499;-70
2023/10/18 12:30:26;;;;;;;;;;;16.90;56.40;;;;;;10234940;28;94535;-70
2023/10/18 12:35:33;;;;;;;;;;;16.90;56.20;;;;;;10225086;28;93945;-70
2023/10/18 12:40:41;;;;;;;;;;;16.90;56.00;;;;;;10243309;28;93605;-70
2023/10/18 12:45:45;;;;;;;;;;;16.90;55.80;;;;;;10240930;28;92879;-70
2023/10/18 12:50:54;;;;;;;;;;;17.00;55.80;;;;;;10238819;28;94652;-70
2023/10/18 13:01:22;;;;;;;;;;;16.90;56.00;;;;;;10224229;28;93486;-70
2023/10/18 13:06:30;;;;;;;;;;;16.90;56.80;;;;;;10218193;28;95193;-70
2023/10/18 13:16:43;;;;;;;;;;;16.90;56.50;;;;;;10231501;28;93086;-69
2023/10/18 13:21:47;;;;;;;;;;;16.90;56.40;;;;;;10235146;28;94717;-70
2023/10/18 13:26:53;;;;;;;;;;;16.90;56.30;;;;;;10229750;28;93349;-70
2023/10/18 13:31:57;;;;;;;;;;;16.90;56.20;;;;;;10232979;28;93465;-70
2023/10/18 13:37:04;;;;;;;;;;;16.90;56.10;;;;;;10212982;28;93644;-70
2023/10/18 13:42:06;;;;;;;;;;;17.00;55.90;;;;;;10239459;28;94434;-70
2023/10/18 13:47:11;;;;;;;;;;;17.00;55.80;;;;;;10233601;28;95148;-70
2023/10/18 13:52:15;;;;;;;;;;;17.00;55.90;;;;;;10212086;28;93584;-69
2023/10/18 13:57:17;;;;;;;;;;;16.90;56.40;;;;;;10240184;28;94805;-70
2023/10/18 14:02:19;;;;;;;;;;;16.90;56.80;;;;;;10238202;28;96068;-70
2023/10/18 14:07:21;;;;;;;;;;;16.90;56.50;;;;;;10230066;28;94472;-70
2023/10/18 14:12:24;;;;;;;;;;;16.90;56.40;;;;;;10220730;28;94261;-69
2023/10/18 14:17:27;;;;;;;;;;;17.00;56.40;;;;;;10235868;28;94931;-70
2023/10/18 14:22:29;;;;;;;;;;;17.00;56.40;;;;;;10232234;28;94131;-70
2023/10/18 14:27:31;;;;;;;;;;;17.00;56.30;;;;;;10230483;28;97327;-70
2023/10/18 14:32:33;;;;;;;;;;;17.00;56.00;;;;;;10231578;28;93634;-70
2023/10/18 14:37:35;;;;;;;;;;;17.00;55.80;;;;;;10227914;28;97563;-70
2023/10/18 14:42:37;;;;;;;;;;;17.00;55.70;;;;;;10243518;28;94470;-69
2023/10/18 14:47:38;;;;;;;;;;;17.00;56.00;;;;;;10245331;28;92737;-70
2023/10/18 14:52:43;;;;;;;;;;;17.00;56.60;;;;;;10220555;28;96832;-70
2023/10/18 14:57:45;;;;;;;;;;;17.00;57.70;;;;;;10239984;28;94399;-70
2023/10/18 15:02:50;;;;;;;;;;;16.90;56.50;;;;;;10246635;28;94395;-70
2023/10/18 15:07:53;;;;;;;;;;;17.00;56.30;;;;;;10246603;28;94459;-69
2023/10/18 15:12:55;;;;;;;;;;;16.90;56.00;;;;;;10246078;28;94403;-69
2023/10/18 15:17:58;;;;;;;;;;;16.90;56.00;;;;;;10241904;28;94615;-69
2023/10/18 15:23:01;;;;;;;;;;;17.00;56.20;;;;;;10219100;28;93392;-68
2023/10/18 15:28:05;;;;;;;;;;;17.20;56.50;;;;;;10238907;28;93026;-70
2023/10/18 15:33:09;;;;;;;;;;;17.40;56.40;;;;;;10243161;28;94423;-69
2023/10/18 15:38:12;;;;;;;;;;;17.60;56.40;;;;;;10212565;28;94322;-68
2023/10/18 15:43:17;;;;;;;;;;;17.70;56.30;;;;;;10208174;28;96806;-68
2023/10/18 15:48:19;;;;;;;;;;;17.70;56.30;;;;;;10232450;28;92853;-70
2023/10/18 15:53:23;;;;;;;;;;;17.80;56.70;;;;;;10234492;28;93842;-68
2023/10/18 15:58:29;;;;;;;;;;;17.90;57.70;;;;;;10241819;28;94053;-67
2023/10/18 16:03:30;;;;;;;;;;;17.90;57.70;;;;;;10241571;28;94596;-67
2023/10/18 16:08:33;;;;;;;;;;;18.00;60.90;;;;;;10236232;28;93365;-67
2023/10/18 16:13:38;;;;;;;;;;;18.20;65.10;;;;;;10240736;28;94091;-67
2023/10/18 16:18:41;;;;;;;;;;;18.50;66.10;;;;;;10220576;28;93344;-67
2023/10/18 16:23:50;;;;;;;;;;;18.80;66.50;;;;;;10221144;28;94364;-66
2023/10/18 16:28:52;;;;;;;;;;;18.90;67.90;;;;;;10233903;28;93395;-69
2023/10/18 16:33:54;;;;;;;;;;;19.00;67.40;;;;;;10213893;28;95865;-69
2023/10/18 16:38:57;;;;;;;;;;;19.00;67.10;;;;;;10239792;28;93631;-69
2023/10/18 16:43:58;;;;;;;;;;;19.00;66.30;;;;;;10242003;28;94063;-69
2023/10/18 16:49:03;;;;;;;;;;;18.90;65.40;;;;;;10235940;28;94076;-68
2023/10/18 16:54:06;;;;;;;;;;;18.80;64.70;;;;;;10225903;28;93447;-66
2023/10/18 16:59:07;;;;;;;;;;;18.70;63.90;;;;;;10241208;28;94463;-68
2023/10/18 17:04:11;;;;;;;;;;;18.70;64.00;;;;;;10239402;28;94376;-67
2023/10/18 17:09:19;;;;;;;;;;;18.60;63.90;;;;;;10218634;28;92787;-66
2023/10/18 17:14:21;;;;;;;;;;;18.50;64.30;;;;;;10213005;28;94810;-69
2023/10/18 17:19:22;;;;;;;;;;;18.50;65.00;;;;;;10222787;28;94586;-67
2023/10/18 17:24:24;;;;;;;;;;;18.50;65.00;;;;;;10236402;28;96816;-67
2023/10/18 17:29:26;;;;;;;;;;;18.40;65.00;;;;;;10220493;28;94504;-66
2023/10/18 17:34:28;;;;;;;;;;;18.40;65.00;;;;;;10214903;28;93198;-66
2023/10/18 17:39:30;;;;;;;;;;;18.40;65.00;;;;;;10224580;28;93925;-66
2023/10/18 17:44:32;;;;;;;;;;;18.30;65.10;;;;;;10228467;28;93759;-67
2023/10/18 17:49:34;;;;;;;;;;;18.20;65.00;;;;;;10223902;28;94265;-67
2023/10/18 17:54:39;;;;;;;;;;;18.30;65.40;;;;;;10227817;28;95234;-66
2023/10/18 17:59:41;;;;;;;;;;;18.40;65.20;;;;;;10222332;28;93750;-67
2023/10/18 18:04:44;;;;;;;;;;;18.40;65.30;;;;;;10200876;28;94058;-67
2023/10/18 18:09:47;;;;;;;;;;;18.50;65.10;;;;;;10236192;28;93560;-66
2023/10/18 18:14:50;;;;;;;;;;;18.40;65.00;;;;;;10203966;28;96204;-66
2023/10/18 18:19:55;;;;;;;;;;;18.40;64.90;;;;;;10219038;28;93567;-67
2023/10/18 18:24:57;;;;;;;;;;;18.40;65.00;;;;;;10217246;28;93507;-67
2023/10/18 18:30:00;;;;;;;;;;;18.40;65.10;;;;;;10229574;28;94440;-67
2023/10/18 18:35:03;;;;;;;;;;;18.30;65.10;;;;;;10231009;28;94299;-66
2023/10/18 18:40:09;;;;;;;;;;;18.40;65.20;;;;;;10230580;28;93434;-66
2023/10/18 18:45:12;;;;;;;;;;;18.30;67.00;;;;;;10239977;28;94693;-65
2023/10/18 18:50:14;;;;;;;;;;;18.40;66.90;;;;;;10233855;28;93692;-67
2023/10/18 18:55:17;;;;;;;;;;;18.50;66.20;;;;;;10239949;28;94451;-68
2023/10/18 19:00:22;;;;;;;;;;;18.40;65.50;;;;;;10230117;28;93767;-68
2023/10/18 19:05:24;;;;;;;;;;;18.40;65.50;;;;;;10232321;28;97234;-68
2023/10/18 19:10:26;;;;;;;;;;;18.30;65.60;;;;;;10236422;28;94389;-68
2023/10/18 19:15:29;;;;;;;;;;;18.30;65.60;;;;;;10232800;28;93477;-68
2023/10/18 19:20:31;;;;;;;;;;;18.20;65.70;;;;;;10230354;28;94460;-68
2023/10/18 19:25:33;;;;;;;;;;;18.20;65.80;;;;;;10232293;28;94353;-68
2023/10/18 19:30:34;;;;;;;;;;;18.20;65.80;;;;;;10231792;28;94510;-68
2023/10/18 19:35:36;;;;;;;;;;;18.10;65.80;;;;;;10204550;28;93179;-68
2023/10/18 19:40:38;;;;;;;;;;;18.10;65.90;;;;;;10231462;28;94538;-68
2023/10/18 19:45:40;;;;;;;;;;;18.10;66.10;;;;;;10234000;28;97848;-68
2023/10/18 19:50:42;;;;;;;;;;;18.00;66.20;;;;;;10238723;28;94571;-68
2023/10/18 19:55:44;;;;;;;;;;;18.00;66.40;;;;;;10217773;28;99538;-68
2023/10/18 20:06:53;;;;;;;;;;;17.90;66.40;;;;;;10253154;28;94058;-66
2023/10/18 20:11:55;;;;;;;;;;;17.90;66.30;;;;;;10275846;28;93767;-67
2023/10/18 20:16:58;;;;;;;;;;;17.90;66.20;;;;;;10282001;28;94448;-67
2023/10/18 20:21:59;;;;;;;;;;;17.90;66.20;;;;;;10258023;28;94549;-67
2023/10/18 20:27:03;;;;;;;;;;;17.80;66.00;;;;;;10271391;28;94529;-67
2023/10/18 20:32:05;;;;;;;;;;;17.80;65.90;;;;;;10282576;28;93833;-67
2023/10/18 20:37:07;;;;;;;;;;;17.80;65.80;;;;;;10276668;28;93742;-67
2023/10/18 20:42:09;;;;;;;;;;;17.70;65.70;;;;;;10269645;28;93438;-67
2023/10/18 20:47:15;;;;;;;;;;;17.70;65.70;;;;;;10273773;28;97040;-67
2023/10/18 20:52:17;;;;;;;;;;;17.70;65.50;;;;;;10272647;28;95093;-67
2023/10/18 20:57:22;;;;;;;;;;;17.70;65.50;;;;;;10286282;28;95497;-67
2023/10/18 21:02:24;;;;;;;;;;;17.70;65.40;;;;;;10262914;28;93412;-68
2023/10/18 21:07:26;;;;;;;;;;;17.70;65.20;;;;;;10281022;28;93471;-67
2023/10/18 21:12:30;;;;;;;;;;;17.70;65.20;;;;;;10249641;28;93899;-67
2023/10/18 21:17:32;;;;;;;;;;;17.60;65.00;;;;;;10263317;28;93011;-67
2023/10/18 21:22:34;;;;;;;;;;;17.60;65.00;;;;;;10276333;28;92502;-67
2023/10/18 21:27:36;;;;;;;;;;;17.60;64.90;;;;;;10264235;28;93746;-67
2023/10/18 21:32:39;;;;;;;;;;;17.60;64.90;;;;;;10262407;28;93812;-67
2023/10/18 21:37:45;;;;;;;;;;;17.60;64.80;;;;;;10266460;28;96914;-68
2023/10/18 21:42:48;;;;;;;;;;;17.60;64.80;;;;;;10253517;28;93817;-67
2023/10/18 21:47:51;;;;;;;;;;;17.60;64.70;;;;;;10256642;28;93133;-67
2023/10/18 21:52:53;;;;;;;;;;;17.50;64.60;;;;;;10275277;28;93445;-68
2023/10/18 21:57:55;;;;;;;;;;;17.60;64.60;;;;;;10288750;28;93469;-68
2023/10/18 22:03:01;;;;;;;;;;;17.50;64.50;;;;;;10277379;28;93462;-67
2023/10/18 22:08:08;;;;;;;;;;;17.50;64.40;;;;;;10284560;28;94673;-68
2023/10/18 22:13:10;;;;;;;;;;;17.50;64.40;;;;;;10269074;28;92709;-67
2023/10/18 22:18:15;;;;;;;;;;;17.50;64.40;;;;;;10283590;28;93164;-67
2023/10/18 22:23:20;;;;;;;;;;;17.50;64.40;;;;;;10270096;28;114056;-67
2023/10/18 22:28:22;;;;;;;;;;;17.50;64.40;;;;;;10276566;28;96202;-67
2023/10/18 22:33:25;;;;;;;;;;;17.40;64.30;;;;;;10274836;28;94138;-67
2023/10/18 22:38:26;;;;;;;;;;;17.40;64.30;;;;;;10288236;28;93457;-67
2023/10/18 22:43:31;;;;;;;;;;;17.40;64.30;;;;;;10286877;28;93519;-67
2023/10/18 22:48:35;;;;;;;;;;;17.40;64.20;;;;;;10281336;28;93781;-67
2023/10/18 22:53:55;;;;;;;;;;;17.40;64.30;;;;;;10285936;28;94468;-67
2023/10/18 22:59:01;;;;;;;;;;;17.40;64.20;;;;;;10271833;28;94531;-67
2023/10/18 23:04:03;;;;;;;;;;;17.30;64.20;;;;;;10280738;28;93775;-68
2023/10/18 23:09:06;;;;;;;;;;;17.30;64.20;;;;;;10269614;28;93853;-67
2023/10/18 23:14:23;;;;;;;;;;;17.30;64.20;;;;;;10292831;28;93869;-68
2023/10/18 23:29:39;;;;;;;;;;;17.30;64.20;;;;;;10283907;28;94626;-67
2023/10/18 23:34:51;;;;;;;;;;;17.30;64.20;;;;;;10248587;28;93710;-68
2023/10/18 23:39:57;;;;;;;;;;;17.30;64.20;;;;;;10284403;28;93471;-67
2023/10/18 23:45:12;;;;;;;;;;;17.20;64.10;;;;;;10283116;28;94023;-67
2023/10/18 23:50:24;;;;;;;;;;;17.20;64.10;;;;;;10285576;28;93473;-67
2023/10/18 23:55:39;;;;;;;;;;;17.20;64.10;;;;;;10275856;28;93288;-67
